createdAt,value
2022-07-25T00:02:15.118Z,68.30
2022-07-25T00:04:44.141Z,69.20
2022-07-25T00:07:12.343Z,67.90
2022-07-25T00:09:40.249Z,66.80
2022-07-25T00:12:08.541Z,68.10
2022-07-25T00:14:40.609Z,68.80
2022-07-25T00:17:08.490Z,68.70
2022-07-25T00:19:36.380Z,67.90
2022-07-25T00:22:04.279Z,69.50
2022-07-25T00:24:32.355Z,68.80
2022-07-25T00:27:00.333Z,70.00
2022-07-25T00:29:28.160Z,69.00
2022-07-25T00:31:57.397Z,69.40
2022-07-25T00:34:25.227Z,70.20
2022-07-25T00:36:53.879Z,69.80
2022-07-25T00:39:21.771Z,69.50
2022-07-25T00:41:49.615Z,71.00
2022-07-25T00:44:25.190Z,71.20
2022-07-25T00:46:54.119Z,71.70
2022-07-25T00:49:23.946Z,70.30
2022-07-25T00:51:52.858Z,69.00
2022-07-25T00:54:21.227Z,70.00
2022-07-25T00:56:49.839Z,70.90
2022-07-25T00:59:17.796Z,69.40
2022-07-25T01:01:48.295Z,69.30
2022-07-25T01:04:17.601Z,71.30
2022-07-25T01:06:46.988Z,72.80
2022-07-25T01:09:15.330Z,71.70
2022-07-25T01:11:43.582Z,72.10
2022-07-25T01:14:11.602Z,71.10
2022-07-25T01:16:41.190Z,70.40
2022-07-25T01:19:09.123Z,70.70
2022-07-25T01:21:41.379Z,72.10
2022-07-25T01:24:10.302Z,70.50
2022-07-25T01:26:38.716Z,73.00
2022-07-25T01:29:06.998Z,70.50
2022-07-25T01:31:35.076Z,70.40
2022-07-25T01:34:03.433Z,69.30
2022-07-25T01:36:31.786Z,70.50
2022-07-25T01:39:01.131Z,70.10
2022-07-25T01:41:28.981Z,69.60
2022-07-25T01:43:56.909Z,69.80
2022-07-25T01:46:24.841Z,70.70
2022-07-25T01:48:53.053Z,71.30
2022-07-25T01:51:21.210Z,72.40
2022-07-25T01:53:49.608Z,71.00
2022-07-25T01:56:19.422Z,71.60
2022-07-25T01:58:50.564Z,74.00
2022-07-25T02:01:19.393Z,70.90
2022-07-25T02:03:49.989Z,69.40
2022-07-25T02:06:20.895Z,72.10
2022-07-25T02:08:48.882Z,73.60
2022-07-25T02:11:19.165Z,72.00
2022-07-25T02:13:47.798Z,72.90
2022-07-25T02:16:15.690Z,73.40
2022-07-25T02:18:43.577Z,69.90
2022-07-25T02:21:14.250Z,71.30
2022-07-25T02:23:43.017Z,72.20
2022-07-25T02:26:10.910Z,73.50
2022-07-25T02:28:40.783Z,72.00
2022-07-25T02:31:09.141Z,72.70
2022-07-25T02:33:37.610Z,74.00
2022-07-25T02:36:05.780Z,74.00
2022-07-25T02:38:33.701Z,72.50
2022-07-25T02:41:01.671Z,73.80
2022-07-25T02:43:29.574Z,72.20
2022-07-25T02:45:58.909Z,70.20
2022-07-25T02:48:26.970Z,70.90
2022-07-25T02:50:54.895Z,73.20
2022-07-25T02:53:46.735Z,69.70
2022-07-25T02:56:10.792Z,71.10
2022-07-25T02:58:39.376Z,70.40
2022-07-25T03:01:09.365Z,74.00
2022-07-25T03:03:37.361Z,73.00
2022-07-25T03:06:05.644Z,72.90
2022-07-25T03:08:33.587Z,73.30
2022-07-25T03:11:01.427Z,75.50
2022-07-25T03:13:29.312Z,73.00
2022-07-25T03:15:57.157Z,73.70
2022-07-25T03:18:26.379Z,75.40
2022-07-25T03:20:54.375Z,73.50
2022-07-25T03:23:22.482Z,72.60
2022-07-25T03:25:50.362Z,72.30
2022-07-25T03:28:18.285Z,70.60
2022-07-25T03:30:46.211Z,70.00
2022-07-25T03:33:14.146Z,71.30
2022-07-25T03:35:43.410Z,70.70
2022-07-25T03:38:11.321Z,69.70
2022-07-25T03:40:39.604Z,71.40
2022-07-25T03:43:07.531Z,71.20
2022-07-25T03:45:35.912Z,73.40
2022-07-25T03:48:04.002Z,69.90
2022-07-25T03:50:32.039Z,71.60
2022-07-25T03:53:11.006Z,71.60
2022-07-25T03:55:39.600Z,71.00
2022-07-25T03:58:07.587Z,67.60
2022-07-25T04:00:35.489Z,69.20
2022-07-25T04:03:03.727Z,67.60
2022-07-25T04:05:31.658Z,68.30
2022-07-25T04:08:01.083Z,68.90
2022-07-25T04:10:28.969Z,71.40
2022-07-25T04:12:56.811Z,71.20
2022-07-25T04:15:24.798Z,69.10
2022-07-25T04:17:52.665Z,66.60
2022-07-25T04:20:21.980Z,64.00
2022-07-25T04:22:50.245Z,64.10
2022-07-25T04:25:19.473Z,62.10
2022-07-25T04:27:47.324Z,62.10
2022-07-25T04:30:24.092Z,60.50
2022-07-25T04:32:52.718Z,58.60
2022-07-25T04:35:20.708Z,57.40
2022-07-25T04:37:48.586Z,57.90
2022-07-25T04:40:16.642Z,56.80
2022-07-25T04:42:45.942Z,56.50
2022-07-25T04:45:17.819Z,57.40
2022-07-25T04:47:46.025Z,56.40
2022-07-25T04:50:14.767Z,55.50
2022-07-25T04:52:42.652Z,57.00
2022-07-25T04:55:11.206Z,55.70
2022-07-25T04:57:39.173Z,55.20
2022-07-25T05:00:11.102Z,57.00
2022-07-25T05:02:39.097Z,55.60
2022-07-25T05:05:08.545Z,54.50
2022-07-25T05:07:49.147Z,54.40
2022-07-25T05:10:17.041Z,54.10
2022-07-25T05:12:44.988Z,55.10
2022-07-25T05:15:14.676Z,53.10
2022-07-25T05:17:42.788Z,53.00
2022-07-25T05:20:12.245Z,52.30
2022-07-25T05:22:40.158Z,49.90
2022-07-25T05:25:09.804Z,49.70
2022-07-25T05:27:38.294Z,48.80
2022-07-25T05:30:08.174Z,48.40
2022-07-25T05:32:37.530Z,48.20
2022-07-25T05:35:07.940Z,48.50
2022-07-25T05:37:39.463Z,48.00
2022-07-25T05:40:08.854Z,48.40
2022-07-25T05:42:36.891Z,49.60
2022-07-25T05:45:05.507Z,51.60
2022-07-25T05:47:33.393Z,51.90
2022-07-25T05:50:03.523Z,51.50
2022-07-25T05:52:31.444Z,51.40
2022-07-25T05:54:59.355Z,50.90
2022-07-25T05:57:27.564Z,49.80
2022-07-25T05:59:55.493Z,50.30
2022-07-25T06:02:23.566Z,50.30
2022-07-25T06:04:51.610Z,51.80
2022-07-25T06:07:20.843Z,52.70
2022-07-25T06:09:48.710Z,52.40
2022-07-25T06:12:16.588Z,52.40
2022-07-25T06:14:45.362Z,52.40
2022-07-25T06:17:13.521Z,53.00
2022-07-25T06:19:41.429Z,52.50
2022-07-25T06:22:09.578Z,51.30
2022-07-25T06:24:38.902Z,51.20
2022-07-25T06:27:08.090Z,49.50
2022-07-25T06:29:36.243Z,49.10
2022-07-25T06:32:04.152Z,49.00
2022-07-25T06:34:32.055Z,49.00
2022-07-25T06:36:59.987Z,49.00
2022-07-25T06:39:28.603Z,50.10
2022-07-25T06:41:59.671Z,48.90
2022-07-25T06:44:27.643Z,48.60
2022-07-25T06:46:55.571Z,48.40
2022-07-25T06:49:23.461Z,47.30
2022-07-25T06:51:51.345Z,45.60
2022-07-25T06:54:19.228Z,44.50
2022-07-25T06:56:47.565Z,43.20
2022-07-25T06:59:16.821Z,43.10
2022-07-25T07:02:00.029Z,43.20
2022-07-25T07:04:27.872Z,43.90
2022-07-25T07:06:55.749Z,41.70
2022-07-25T07:09:23.593Z,42.40
2022-07-25T07:11:51.456Z,41.20
2022-07-25T07:14:20.661Z,41.60
2022-07-25T07:16:48.474Z,40.70
2022-07-25T07:19:18.047Z,41.70
2022-07-25T07:21:46.028Z,41.50
2022-07-25T07:24:24.262Z,40.70
2022-07-25T07:26:52.910Z,40.10
2022-07-25T07:29:22.581Z,39.80
2022-07-25T07:31:50.799Z,39.40
2022-07-25T07:34:18.933Z,39.40
2022-07-25T07:36:46.783Z,39.40
2022-07-25T07:39:16.549Z,39.30
2022-07-25T07:41:44.485Z,39.80
2022-07-25T07:44:12.408Z,39.00
2022-07-25T07:46:41.862Z,38.70
2022-07-25T07:49:10.530Z,37.90
2022-07-25T07:52:00.336Z,37.50
2022-07-25T07:54:46.128Z,38.20
2022-07-25T07:57:15.137Z,37.40
2022-07-25T07:59:43.088Z,36.90
2022-07-25T08:02:12.411Z,36.50
2022-07-25T08:04:40.287Z,35.80
2022-07-25T08:07:08.220Z,36.00
2022-07-25T08:09:36.086Z,35.40
2022-07-25T08:12:04.186Z,35.60
2022-07-25T08:14:32.924Z,35.80
2022-07-25T08:20:43.423Z,34.60
2022-07-25T08:23:12.014Z,33.50
2022-07-25T08:25:40.464Z,34.00
2022-07-25T08:28:08.367Z,34.00
2022-07-25T08:30:37.708Z,34.40
2022-07-25T08:33:08.033Z,34.50
2022-07-25T08:35:36.290Z,34.00
2022-07-25T08:38:06.545Z,33.60
2022-07-25T08:40:35.464Z,34.40
2022-07-25T08:43:03.273Z,34.80
2022-07-25T08:45:31.185Z,35.00
2022-07-25T08:47:59.005Z,34.70
2022-07-25T08:50:28.551Z,35.30
2022-07-25T08:53:16.668Z,34.60
2022-07-25T08:55:46.710Z,34.70
2022-07-25T08:58:16.748Z,34.70
2022-07-25T09:00:45.721Z,34.90
2022-07-25T09:07:06.236Z,34.70
2022-07-25T09:09:38.263Z,35.30
2022-07-25T09:12:35.466Z,36.00
2022-07-25T09:15:09.326Z,35.60
2022-07-25T09:17:39.654Z,35.50
2022-07-25T09:20:09.580Z,35.30
2022-07-25T09:22:45.360Z,34.00
2022-07-25T09:25:27.310Z,34.00
2022-07-25T09:27:57.298Z,34.40
2022-07-25T09:30:25.167Z,33.90
2022-07-25T09:33:01.511Z,34.20
2022-07-25T09:35:33.617Z,34.30
2022-07-25T09:38:13.457Z,34.70
2022-07-25T09:40:42.069Z,33.40
2022-07-25T09:44:14.624Z,32.50
2022-07-25T09:46:44.336Z,32.60
2022-07-25T09:49:14.474Z,32.60
2022-07-25T09:51:42.920Z,33.20
2022-07-25T09:54:10.962Z,33.90
2022-07-25T09:56:38.942Z,33.70
2022-07-25T09:59:07.080Z,32.70
2022-07-25T10:01:38.084Z,32.90
2022-07-25T10:04:17.460Z,32.50
2022-07-25T10:06:51.658Z,32.60
2022-07-25T10:09:19.941Z,32.70
2022-07-25T10:12:09.418Z,33.40
2022-07-25T10:14:38.869Z,32.00
2022-07-25T10:17:08.915Z,33.40
2022-07-25T10:19:49.187Z,32.10
2022-07-25T10:22:34.417Z,32.10
2022-07-25T10:25:13.917Z,32.40
2022-07-25T10:27:44.709Z,31.80
2022-07-25T10:30:21.199Z,31.70
2022-07-25T10:32:57.397Z,30.80
2022-07-25T10:35:27.830Z,30.50
2022-07-25T10:37:57.589Z,30.60
2022-07-25T10:40:30.834Z,30.30
2022-07-25T10:43:02.806Z,31.10
2022-07-25T10:45:40.363Z,29.80
2022-07-25T10:48:09.462Z,30.10
2022-07-25T10:50:55.854Z,30.50
2022-07-25T10:53:35.151Z,30.00
2022-07-25T10:56:08.842Z,30.50
2022-07-25T10:58:48.578Z,30.30
2022-07-25T11:01:21.686Z,30.70
2022-07-25T11:03:49.978Z,30.40
2022-07-25T11:06:31.381Z,30.50
2022-07-25T11:09:01.506Z,30.40
2022-07-25T11:11:37.709Z,30.00
2022-07-25T11:14:06.627Z,30.10
2022-07-25T11:16:34.598Z,30.30
2022-07-25T11:19:02.442Z,29.70
2022-07-25T11:21:31.949Z,30.40
2022-07-25T11:23:59.706Z,30.20
2022-07-25T11:26:27.503Z,30.20
2022-07-25T11:28:55.267Z,29.70
2022-07-25T11:31:23.996Z,29.90
2022-07-25T11:33:52.070Z,30.30
2022-07-25T11:36:20.148Z,30.60
2022-07-25T11:38:50.534Z,30.40
2022-07-25T11:41:29.722Z,30.20
2022-07-25T11:43:57.625Z,30.30
2022-07-25T11:46:25.878Z,30.50
2022-07-25T11:49:05.663Z,29.50
2022-07-25T11:51:38.616Z,29.30
2022-07-25T11:54:13.143Z,29.60
2022-07-25T11:56:43.347Z,29.40
2022-07-25T11:59:12.194Z,29.60
2022-07-25T12:01:41.737Z,29.40
2022-07-25T12:04:12.445Z,29.40
2022-07-25T12:06:40.410Z,29.60
2022-07-25T12:09:18.540Z,29.20
2022-07-25T12:11:48.507Z,28.60
2022-07-25T12:14:16.603Z,28.30
2022-07-25T12:16:44.425Z,28.20
2022-07-25T12:19:20.393Z,28.20
2022-07-25T12:21:48.178Z,28.10
2022-07-25T12:24:17.293Z,28.40
2022-07-25T12:26:45.126Z,28.40
2022-07-25T12:29:12.882Z,27.90
2022-07-25T12:31:40.640Z,27.90
2022-07-25T12:34:08.410Z,28.50
2022-07-25T12:36:41.100Z,28.70
2022-07-25T12:39:09.259Z,27.30
2022-07-25T12:41:39.954Z,27.20
2022-07-25T12:44:07.734Z,27.40
2022-07-25T12:46:36.037Z,27.50
2022-07-25T12:49:04.325Z,28.20
2022-07-25T12:51:32.459Z,28.70
2022-07-25T12:54:00.211Z,29.40
2022-07-25T12:56:28.041Z,29.60
2022-07-25T12:58:57.235Z,29.40
2022-07-25T13:01:25.154Z,29.30
2022-07-25T13:03:52.971Z,29.80
2022-07-25T13:06:20.862Z,30.20
2022-07-25T13:08:48.708Z,31.00
2022-07-25T13:11:16.738Z,31.10
2022-07-25T13:13:44.499Z,31.30
2022-07-25T13:16:14.195Z,30.80
2022-07-25T13:18:41.985Z,30.80
2022-07-25T13:21:09.783Z,30.20
2022-07-25T13:23:37.753Z,30.70
2022-07-25T13:26:05.598Z,30.60
2022-07-25T13:28:37.327Z,30.60
2022-07-25T13:31:06.903Z,31.30
2022-07-25T13:33:36.215Z,31.90
2022-07-25T13:36:04.290Z,32.60
2022-07-25T13:38:34.608Z,32.40
2022-07-25T13:41:02.717Z,32.20
2022-07-25T13:43:30.539Z,32.20
2022-07-25T13:45:58.537Z,32.40
2022-07-25T13:48:29.929Z,33.00
2022-07-25T13:51:00.403Z,33.20
2022-07-25T13:53:30.543Z,33.80
2022-07-25T13:55:59.419Z,34.00
2022-07-25T13:58:27.381Z,33.80
2022-07-25T14:00:55.433Z,33.70
2022-07-25T14:03:23.350Z,33.70
2022-07-25T14:05:51.527Z,33.80
2022-07-25T14:08:20.676Z,33.90
2022-07-25T14:10:48.541Z,34.50
2022-07-25T14:13:16.299Z,33.80
2022-07-25T14:15:44.901Z,33.90
2022-07-25T14:18:12.707Z,33.70
2022-07-25T14:20:40.540Z,33.30
2022-07-25T14:23:08.354Z,33.50
2022-07-25T14:25:38.851Z,33.30
2022-07-25T14:28:06.693Z,33.20
2022-07-25T14:30:34.595Z,33.90
2022-07-25T14:33:03.345Z,33.40
2022-07-25T14:35:32.681Z,33.80
2022-07-25T14:38:00.810Z,33.90
2022-07-25T14:40:28.686Z,33.90
2022-07-25T14:42:57.828Z,34.00
2022-07-25T14:45:25.671Z,34.20
2022-07-25T14:47:53.968Z,33.40
2022-07-25T14:50:22.026Z,33.80
2022-07-25T14:52:49.761Z,33.60
2022-07-25T14:55:18.811Z,33.50
2022-07-25T14:57:46.614Z,33.60
2022-07-25T15:00:16.565Z,33.50
2022-07-25T15:02:44.653Z,34.00
2022-07-25T15:05:12.575Z,33.90
2022-07-25T15:07:40.497Z,33.40
2022-07-25T15:10:08.874Z,33.40
2022-07-25T15:12:36.712Z,34.00
2022-07-25T15:15:05.212Z,34.60
2022-07-25T15:17:34.633Z,34.70
2022-07-25T15:20:02.433Z,34.70
2022-07-25T15:22:30.389Z,35.00
2022-07-25T15:25:29.786Z,34.50
2022-07-25T15:27:46.186Z,34.20
2022-07-25T15:30:14.603Z,34.60
2022-07-25T15:32:43.701Z,34.30
2022-07-25T15:35:11.489Z,34.50
2022-07-25T15:37:39.266Z,34.20
2022-07-25T15:40:07.925Z,34.70
2022-07-25T15:42:36.175Z,34.60
2022-07-25T15:45:31.619Z,34.60
2022-07-25T15:47:53.265Z,35.40
2022-07-25T15:50:21.585Z,35.70
2022-07-25T15:52:49.754Z,35.60
2022-07-25T15:55:17.692Z,35.80
2022-07-25T15:57:45.499Z,35.90
2022-07-25T16:00:14.251Z,35.70
2022-07-25T16:02:42.019Z,35.80
2022-07-25T16:05:11.523Z,36.40
2022-07-25T16:07:39.667Z,36.70
2022-07-25T16:10:07.879Z,36.50
2022-07-25T16:12:35.759Z,36.20
2022-07-25T16:15:04.180Z,35.90
2022-07-25T16:17:33.095Z,36.20
2022-07-25T16:20:01.038Z,36.50
2022-07-25T16:22:30.267Z,37.00
2022-07-25T16:25:01.076Z,36.80
2022-07-25T16:27:28.979Z,37.10
2022-07-25T16:29:57.785Z,36.90
2022-07-25T16:32:25.941Z,37.20
2022-07-25T16:34:53.746Z,37.30
2022-07-25T16:37:21.926Z,38.00
2022-07-25T16:39:51.067Z,38.10
2022-07-25T16:42:18.831Z,38.60
2022-07-25T16:44:47.756Z,39.20
2022-07-25T16:47:15.609Z,39.30
2022-07-25T16:49:43.389Z,39.60
2022-07-25T16:52:11.143Z,39.60
2022-07-25T16:54:38.894Z,39.50
2022-07-25T16:57:08.821Z,39.60
2022-07-25T16:59:36.628Z,39.60
2022-07-25T17:02:04.726Z,40.30
2022-07-25T17:04:33.483Z,40.60
2022-07-25T17:07:01.978Z,41.00
2022-07-25T17:09:29.779Z,41.30
2022-07-25T17:11:57.954Z,41.60
2022-07-25T17:14:30.168Z,41.60
2022-07-25T17:16:58.674Z,42.30
2022-07-25T17:19:26.744Z,42.60
2022-07-25T17:21:54.553Z,43.30
2022-07-25T17:24:22.304Z,43.80
2022-07-25T17:26:50.383Z,43.60
2022-07-25T17:29:18.161Z,43.60
2022-07-25T17:31:47.397Z,43.90
2022-07-25T17:34:15.200Z,43.70
2022-07-25T17:36:43.817Z,43.60
2022-07-25T17:39:11.570Z,43.90
2022-07-25T17:41:39.368Z,43.90
2022-07-25T17:44:11.605Z,44.20
2022-07-25T17:46:40.109Z,44.10
2022-07-25T17:49:09.308Z,44.10
2022-07-25T17:51:37.223Z,44.10
2022-07-25T17:54:05.880Z,43.40
2022-07-25T17:56:34.335Z,43.30
2022-07-25T17:59:02.839Z,43.30
2022-07-25T18:01:30.682Z,43.10
2022-07-25T18:03:58.739Z,43.00
2022-07-25T18:06:29.973Z,42.80
2022-07-25T18:08:58.198Z,42.70
2022-07-25T18:11:26.314Z,42.80
2022-07-25T18:13:54.094Z,42.60
2022-07-25T18:16:21.963Z,43.40
2022-07-25T18:18:49.787Z,43.50
2022-07-25T18:21:17.591Z,44.10
2022-07-25T18:23:46.686Z,44.20
2022-07-25T18:26:14.474Z,44.40
2022-07-25T18:28:42.254Z,44.80
2022-07-25T18:31:10.384Z,45.00
2022-07-25T18:33:38.406Z,45.60
2022-07-25T18:36:07.684Z,46.20
2022-07-25T18:38:36.567Z,47.00
2022-07-25T18:41:28.116Z,47.50
2022-07-25T18:43:54.303Z,47.80
2022-07-25T18:46:22.270Z,48.00
2022-07-25T18:48:51.189Z,48.10
2022-07-25T18:51:19.078Z,48.10
2022-07-25T18:53:48.560Z,48.30
2022-07-25T18:56:18.223Z,48.30
2022-07-25T18:58:46.225Z,48.40
2022-07-25T19:01:14.541Z,48.40
2022-07-25T19:03:42.339Z,48.60
2022-07-25T19:06:10.712Z,48.50
2022-07-25T19:08:38.748Z,48.50
2022-07-25T19:11:06.597Z,48.80
2022-07-25T19:13:49.513Z,48.80
2022-07-25T19:16:18.394Z,49.10
2022-07-25T19:18:46.258Z,49.10
2022-07-25T19:21:14.400Z,49.30
2022-07-25T19:23:45.720Z,49.10
2022-07-25T19:26:17.797Z,49.10
2022-07-25T19:28:47.190Z,49.10
2022-07-25T19:31:15.187Z,49.10
2022-07-25T19:33:45.421Z,49.30
2022-07-25T19:36:13.625Z,49.00
2022-07-25T19:38:41.386Z,49.20
2022-07-25T19:41:09.504Z,49.20
2022-07-25T19:43:37.268Z,48.90
2022-07-25T19:46:06.525Z,49.00
2022-07-25T19:48:34.627Z,48.90
2022-07-25T19:51:02.502Z,49.00
2022-07-25T19:53:30.430Z,49.00
2022-07-25T19:55:58.184Z,49.10
2022-07-25T19:58:26.018Z,49.20
2022-07-25T20:00:53.984Z,49.40
2022-07-25T20:03:23.777Z,49.60
2022-07-25T20:05:51.980Z,49.60
2022-07-25T20:08:19.800Z,49.80
2022-07-25T20:10:48.316Z,50.40
2022-07-25T20:13:16.258Z,50.60
2022-07-25T20:15:44.127Z,50.80
2022-07-25T20:18:17.469Z,51.20
2022-07-25T20:20:48.995Z,51.40
2022-07-25T20:23:16.799Z,51.20
2022-07-25T20:25:44.680Z,51.70
2022-07-25T20:28:12.698Z,51.50
2022-07-25T20:30:41.051Z,51.80
2022-07-25T20:33:09.905Z,51.70
2022-07-25T20:35:39.227Z,52.70
2022-07-25T20:38:09.741Z,51.50
2022-07-25T20:40:38.876Z,52.00
2022-07-25T20:43:09.010Z,52.10
2022-07-25T20:45:37.451Z,51.80
2022-07-25T20:48:05.648Z,51.40
2022-07-25T20:50:33.565Z,51.70
2022-07-25T20:53:01.326Z,51.80
2022-07-25T20:55:31.290Z,52.50
2022-07-25T20:57:59.515Z,51.90
2022-07-25T21:00:28.741Z,52.60
2022-07-25T21:02:56.651Z,52.20
2022-07-25T21:05:24.760Z,52.70
2022-07-25T21:07:52.767Z,52.30
2022-07-25T21:10:21.217Z,52.10
2022-07-25T21:12:50.339Z,52.00
2022-07-25T21:15:18.562Z,52.00
2022-07-25T21:17:46.323Z,52.00
2022-07-25T21:20:15.388Z,51.60
2022-07-25T21:22:43.896Z,52.00
2022-07-25T21:25:11.999Z,51.30
2022-07-25T21:27:40.196Z,51.30
2022-07-25T21:30:11.196Z,49.90
2022-07-25T21:32:40.356Z,51.20
2022-07-25T21:35:08.916Z,51.30
2022-07-25T21:37:36.782Z,52.50
2022-07-25T21:40:05.752Z,51.30
2022-07-25T21:42:33.648Z,50.70
2022-07-25T21:45:01.411Z,50.90
2022-07-25T21:47:30.509Z,51.30
2022-07-25T21:50:19.303Z,51.80
2022-07-25T21:52:52.976Z,52.70
2022-07-25T21:55:21.520Z,52.90
2022-07-25T21:57:49.466Z,52.70
2022-07-25T22:00:17.754Z,53.30
2022-07-25T22:02:47.674Z,52.80
2022-07-25T22:05:17.217Z,53.70
2022-07-25T22:07:46.708Z,53.70
2022-07-25T22:10:16.440Z,53.60
2022-07-25T22:12:44.459Z,52.60
2022-07-25T22:15:13.798Z,52.90
2022-07-25T22:17:49.052Z,52.70
2022-07-25T22:20:19.844Z,52.00
2022-07-25T22:22:47.708Z,52.40
2022-07-25T22:25:16.220Z,52.80
2022-07-25T22:27:44.337Z,52.70
2022-07-25T22:30:18.322Z,53.50
2022-07-25T22:32:47.668Z,54.10
2022-07-25T22:35:15.482Z,52.90
2022-07-25T22:37:44.631Z,53.10
2022-07-25T22:40:14.630Z,52.30
2022-07-25T22:42:42.565Z,52.10
2022-07-25T22:45:11.316Z,51.50
2022-07-25T22:47:39.085Z,51.60
2022-07-25T22:50:08.475Z,51.80
2022-07-25T22:52:36.229Z,50.30
2022-07-25T22:55:05.853Z,51.40
2022-07-25T22:57:36.801Z,50.00
2022-07-25T23:00:07.433Z,51.50
2022-07-25T23:02:35.454Z,53.10
2022-07-25T23:05:03.644Z,52.30
2022-07-25T23:07:31.394Z,51.10
2022-07-25T23:09:59.175Z,51.60
2022-07-25T23:12:28.829Z,51.50
2022-07-25T23:14:56.603Z,51.80
2022-07-25T23:17:24.714Z,52.90
2022-07-25T23:19:54.095Z,53.20
2022-07-25T23:22:23.743Z,52.60
2022-07-25T23:24:51.762Z,53.00
2022-07-25T23:27:19.545Z,53.40
2022-07-25T23:29:48.614Z,53.20
2022-07-25T23:32:16.406Z,52.90
2022-07-25T23:34:44.619Z,53.40
2022-07-25T23:37:12.386Z,54.30
2022-07-25T23:39:40.132Z,53.90
2022-07-25T23:42:08.061Z,52.50
2022-07-25T23:44:36.572Z,52.00
2022-07-25T23:47:10.215Z,51.10
2022-07-25T23:49:38.735Z,50.80
2022-07-25T23:52:06.705Z,52.00
2022-07-25T23:54:34.824Z,51.60
2022-07-25T23:57:03.131Z,52.00
2022-07-25T23:59:31.207Z,53.00
